Time;durP1;ratioP1;P1;durP2;ratioP2;P2;SDS_P1;SDS_P2;PMS_P1;PMS_P2;Temp;Humidity;BMP_temperature;BMP_pressure;BME280_temperature;BME280_humidity;BME280_pressure;Samples;Min_cycle;Max_cycle;Signal;HPM_P1;HPM_P2
2023/03/06 00:00:55;;;;;;;5.40;4.83;;;;;;;;;;5088986;28;20184;-51
2023/03/06 00:03:22;;;;;;;6.77;5.27;;;;;;;;;;5080459;28;20231;-51
2023/03/06 00:05:48;;;;;;;5.33;4.57;;;;;;;;;;5087949;28;20183;-51
2023/03/06 00:08:14;;;;;;;5.40;4.50;;;;;;;;;;5095559;28;20199;-51
2023/03/06 00:10:40;;;;;;;6.77;5.30;;;;;;;;;;5088415;28;20203;-51
2023/03/06 00:13:10;;;;;;;5.97;4.57;;;;;;;;;;5088474;28;20180;-51
2023/03/06 00:15:37;;;;;;;5.17;4.67;;;;;;;;;;5096181;28;20167;-51
2023/03/06 00:18:04;;;;;;;5.70;4.57;;;;;;;;;;5089272;28;20565;-51
2023/03/06 00:20:30;;;;;;;5.63;4.77;;;;;;;;;;5085292;28;20745;-51
2023/03/06 00:22:56;;;;;;;5.33;4.73;;;;;;;;;;5088857;28;20179;-51
2023/03/06 00:25:22;;;;;;;5.23;4.73;;;;;;;;;;5067997;28;20184;-51
2023/03/06 00:27:49;;;;;;;5.27;4.73;;;;;;;;;;5083962;28;20199;-51
2023/03/06 00:30:16;;;;;;;6.13;5.57;;;;;;;;;;5090941;28;20605;-51
2023/03/06 00:32:42;;;;;;;6.40;4.77;;;;;;;;;;5086973;28;20213;-51
2023/03/06 00:35:09;;;;;;;5.93;5.43;;;;;;;;;;5079833;28;20515;-51
2023/03/06 00:37:35;;;;;;;6.20;5.60;;;;;;;;;;5088211;28;20275;-51
2023/03/06 00:40:04;;;;;;;6.13;5.20;;;;;;;;;;5091073;28;20176;-51
2023/03/06 00:42:30;;;;;;;6.70;5.50;;;;;;;;;;5089281;28;20334;-51
2023/03/06 00:44:56;;;;;;;6.50;5.90;;;;;;;;;;5084914;28;20172;-51
2023/03/06 00:47:22;;;;;;;6.10;5.50;;;;;;;;;;5085763;28;20350;-51
2023/03/06 00:49:49;;;;;;;6.20;5.60;;;;;;;;;;5084963;28;20635;-51
2023/03/06 00:52:15;;;;;;;6.43;5.80;;;;;;;;;;5084034;28;20415;-51
2023/03/06 00:54:41;;;;;;;6.03;5.53;;;;;;;;;;5091292;28;20187;-51
2023/03/06 00:57:07;;;;;;;7.23;6.43;;;;;;;;;;5084022;28;20168;-51
2023/03/06 00:59:33;;;;;;;7.37;6.47;;;;;;;;;;5089483;28;20345;-53
2023/03/06 01:01:59;;;;;;;8.80;6.63;;;;;;;;;;5085969;28;20586;-51
2023/03/06 01:04:25;;;;;;;8.03;7.00;;;;;;;;;;5085097;28;20223;-51
2023/03/06 01:06:51;;;;;;;7.57;6.77;;;;;;;;;;5099740;28;20194;-51
2023/03/06 01:09:17;;;;;;;8.17;7.37;;;;;;;;;;5083440;28;20253;-51
2023/03/06 01:11:43;;;;;;;7.77;6.97;;;;;;;;;;5093030;28;20211;-50
2023/03/06 01:14:10;;;;;;;8.00;7.07;;;;;;;;;;5088893;28;20168;-51
2023/03/06 01:16:36;;;;;;;7.83;6.90;;;;;;;;;;5091339;28;20218;-51
2023/03/06 01:19:02;;;;;;;8.00;7.00;;;;;;;;;;5080002;28;20210;-51
2023/03/06 01:21:28;;;;;;;7.73;6.93;;;;;;;;;;5090248;28;20267;-51
2023/03/06 01:23:54;;;;;;;7.07;6.37;;;;;;;;;;5091590;28;20180;-51
2023/03/06 01:26:20;;;;;;;8.27;7.33;;;;;;;;;;5085583;28;20523;-51
2023/03/06 01:28:46;;;;;;;8.13;7.20;;;;;;;;;;5085177;28;20207;-51
2023/03/06 01:31:12;;;;;;;8.57;7.77;;;;;;;;;;5091266;28;20209;-51
2023/03/06 01:33:38;;;;;;;9.50;8.27;;;;;;;;;;5079986;28;20225;-51
2023/03/06 01:36:10;;;;;;;10.97;7.90;;;;;;;;;;5079661;28;20546;-51
2023/03/06 01:38:37;;;;;;;8.53;7.73;;;;;;;;;;5081448;28;20544;-51
2023/03/06 01:41:03;;;;;;;13.17;9.40;;;;;;;;;;5086537;28;20658;-51
2023/03/06 01:43:31;;;;;;;10.60;8.93;;;;;;;;;;5075970;28;20183;-51
2023/03/06 01:46:15;;;;;;;10.43;9.17;;;;;;;;;;5091051;28;20194;-51
2023/03/06 01:48:42;;;;;;;11.23;9.77;;;;;;;;;;5086258;28;20211;-51
2023/03/06 01:51:08;;;;;;;11.80;10.00;;;;;;;;;;5086313;28;20171;-51
2023/03/06 01:53:34;;;;;;;10.93;9.80;;;;;;;;;;5083363;28;20183;-51
2023/03/06 01:56:00;;;;;;;12.47;10.83;;;;;;;;;;5089602;28;20175;-51
2023/03/06 01:58:26;;;;;;;15.07;11.07;;;;;;;;;;5087403;28;20176;-51
2023/03/06 02:00:53;;;;;;;12.27;10.77;;;;;;;;;;5093826;28;20199;-51
2023/03/06 02:03:22;;;;;;;12.93;10.83;;;;;;;;;;5087267;28;20237;-51
2023/03/06 02:05:48;;;;;;;13.73;11.07;;;;;;;;;;5088647;28;20225;-51
2023/03/06 02:08:15;;;;;;;13.80;11.37;;;;;;;;;;5087528;28;20199;-51
2023/03/06 02:11:01;;;;;;;12.27;10.60;;;;;;;;;;5091786;28;20581;-51
2023/03/06 02:13:27;;;;;;;11.73;10.30;;;;;;;;;;5090446;28;20542;-51
2023/03/06 02:15:53;;;;;;;12.27;10.30;;;;;;;;;;5094546;28;20188;-51
2023/03/06 02:18:19;;;;;;;13.23;11.30;;;;;;;;;;5084568;28;20188;-52
2023/03/06 02:21:11;;;;;;;13.27;11.47;;;;;;;;;;5098164;28;20182;-52
2023/03/06 02:24:01;;;;;;;13.10;11.47;;;;;;;;;;5080623;28;20275;-52
2023/03/06 02:26:28;;;;;;;16.17;11.77;;;;;;;;;;5081284;28;20187;-52
2023/03/06 02:28:56;;;;;;;12.63;11.33;;;;;;;;;;5074199;28;20708;-52
2023/03/06 02:31:32;;;;;;;13.43;10.90;;;;;;;;;;5076109;28;20195;-52
2023/03/06 02:34:02;;;;;;;13.33;11.43;;;;;;;;;;5081331;28;20297;-52
2023/03/06 02:36:29;;;;;;;15.83;11.63;;;;;;;;;;5100221;28;20184;-52
2023/03/06 02:38:55;;;;;;;14.50;11.67;;;;;;;;;;5091262;28;20213;-52
2023/03/06 02:41:21;;;;;;;15.13;11.93;;;;;;;;;;5090040;28;20186;-52
2023/03/06 02:43:48;;;;;;;13.47;11.37;;;;;;;;;;5090051;28;20191;-52
2023/03/06 02:46:14;;;;;;;15.43;11.87;;;;;;;;;;5081519;28;20189;-52
2023/03/06 02:48:40;;;;;;;15.00;12.27;;;;;;;;;;5085910;28;20263;-53
2023/03/06 02:51:06;;;;;;;12.97;10.97;;;;;;;;;;5088331;28;20183;-52
2023/03/06 02:53:32;;;;;;;13.80;11.57;;;;;;;;;;5082928;28;20180;-52
2023/03/06 02:55:58;;;;;;;14.07;11.93;;;;;;;;;;5088992;28;20187;-52
2023/03/06 02:58:24;;;;;;;13.63;11.60;;;;;;;;;;5091625;28;20187;-52
2023/03/06 03:00:50;;;;;;;12.07;10.63;;;;;;;;;;5096925;28;20197;-52
2023/03/06 03:03:17;;;;;;;12.40;10.27;;;;;;;;;;5088469;28;20716;-52
2023/03/06 03:05:43;;;;;;;12.63;10.90;;;;;;;;;;5091691;28;20199;-52
2023/03/06 03:08:09;;;;;;;12.40;10.30;;;;;;;;;;5084416;28;20195;-52
2023/03/06 03:10:35;;;;;;;11.80;9.90;;;;;;;;;;5089520;28;20184;-52
2023/03/06 03:13:01;;;;;;;13.97;10.23;;;;;;;;;;5088841;28;20181;-52
2023/03/06 03:15:27;;;;;;;12.27;10.40;;;;;;;;;;5091804;28;20262;-52
2023/03/06 03:17:53;;;;;;;11.47;9.90;;;;;;;;;;5074840;28;20190;-52
2023/03/06 03:20:20;;;;;;;11.43;9.97;;;;;;;;;;5089180;28;20620;-51
2023/03/06 03:22:54;;;;;;;11.20;10.00;;;;;;;;;;5088658;28;20274;-52
2023/03/06 03:25:23;;;;;;;12.27;9.90;;;;;;;;;;5095809;28;20637;-52
2023/03/06 03:27:49;;;;;;;12.10;10.03;;;;;;;;;;5093630;28;20206;-52
2023/03/06 03:30:15;;;;;;;12.07;10.13;;;;;;;;;;5091419;28;20188;-52
2023/03/06 03:32:41;;;;;;;9.43;8.43;;;;;;;;;;5081822;28;20702;-52
2023/03/06 03:35:08;;;;;;;9.47;8.37;;;;;;;;;;5089390;28;20172;-52
2023/03/06 03:37:35;;;;;;;10.77;9.53;;;;;;;;;;5088238;28;20179;-52
2023/03/06 03:40:01;;;;;;;11.63;9.03;;;;;;;;;;5091280;28;20172;-52
2023/03/06 03:42:27;;;;;;;12.20;9.27;;;;;;;;;;5090135;28;20573;-52
2023/03/06 03:44:53;;;;;;;11.40;9.27;;;;;;;;;;5081311;28;20211;-52
2023/03/06 03:47:19;;;;;;;11.27;9.60;;;;;;;;;;5093641;28;20558;-52
2023/03/06 03:49:45;;;;;;;11.03;8.47;;;;;;;;;;5093240;28;20671;-52
2023/03/06 03:52:11;;;;;;;10.53;9.33;;;;;;;;;;5088346;28;20207;-52
2023/03/06 03:54:37;;;;;;;12.20;10.23;;;;;;;;;;5089306;28;20183;-52
2023/03/06 03:57:03;;;;;;;11.90;9.20;;;;;;;;;;5076286;28;20245;-52
2023/03/06 03:59:29;;;;;;;10.67;8.67;;;;;;;;;;5087888;28;20211;-52
2023/03/06 04:01:56;;;;;;;11.07;9.53;;;;;;;;;;5085783;28;20195;-52
2023/03/06 04:04:22;;;;;;;10.17;9.17;;;;;;;;;;5089639;28;20230;-52
2023/03/06 04:06:48;;;;;;;11.80;9.30;;;;;;;;;;5089385;28;20546;-52
2023/03/06 04:09:14;;;;;;;13.00;9.83;;;;;;;;;;5088741;28;20306;-52
2023/03/06 04:11:40;;;;;;;12.60;9.60;;;;;;;;;;5097932;28;20195;-52
2023/03/06 04:14:07;;;;;;;11.07;8.90;;;;;;;;;;5089881;28;20190;-52
2023/03/06 04:16:33;;;;;;;13.17;11.33;;;;;;;;;;5080495;28;20647;-52
2023/03/06 04:18:59;;;;;;;12.07;9.53;;;;;;;;;;5085180;28;20544;-52
2023/03/06 04:21:25;;;;;;;10.77;9.30;;;;;;;;;;5084372;28;20604;-52
2023/03/06 04:23:51;;;;;;;12.00;10.13;;;;;;;;;;5080957;28;20180;-52
2023/03/06 04:26:17;;;;;;;11.73;9.53;;;;;;;;;;5077820;28;20204;-52
2023/03/06 04:28:43;;;;;;;12.17;9.63;;;;;;;;;;5089035;28;20211;-52
2023/03/06 04:31:11;;;;;;;12.03;10.13;;;;;;;;;;5087172;28;20172;-52
2023/03/06 04:33:37;;;;;;;11.37;9.07;;;;;;;;;;5080661;28;20171;-52
2023/03/06 04:36:03;;;;;;;12.80;9.30;;;;;;;;;;5090211;28;20179;-52
2023/03/06 04:38:29;;;;;;;13.60;9.17;;;;;;;;;;5089917;28;20205;-52
2023/03/06 04:40:55;;;;;;;10.83;9.33;;;;;;;;;;5081531;28;20229;-52
2023/03/06 04:43:21;;;;;;;12.20;9.20;;;;;;;;;;5087554;28;20188;-52
2023/03/06 04:45:48;;;;;;;10.73;9.07;;;;;;;;;;5089743;28;20191;-52
2023/03/06 04:48:14;;;;;;;10.20;8.90;;;;;;;;;;5069014;28;20569;-52
2023/03/06 04:50:40;;;;;;;10.37;9.00;;;;;;;;;;5079258;28;20192;-52
2023/03/06 04:53:07;;;;;;;11.53;9.07;;;;;;;;;;5087716;28;20179;-52
2023/03/06 04:55:33;;;;;;;12.17;9.33;;;;;;;;;;5087911;28;20184;-52
2023/03/06 04:57:59;;;;;;;12.20;9.37;;;;;;;;;;5087057;28;20589;-52
2023/03/06 05:00:30;;;;;;;11.57;8.63;;;;;;;;;;5088978;28;20188;-52
2023/03/06 05:02:57;;;;;;;10.27;8.40;;;;;;;;;;5086146;28;20231;-52
2023/03/06 05:05:23;;;;;;;10.40;8.50;;;;;;;;;;5085024;28;20196;-52
2023/03/06 05:07:49;;;;;;;9.80;8.20;;;;;;;;;;5078161;28;20188;-52
2023/03/06 05:10:17;;;;;;;11.70;8.30;;;;;;;;;;5087315;28;20175;-52
2023/03/06 05:12:43;;;;;;;11.63;9.07;;;;;;;;;;5079156;28;20195;-52
2023/03/06 05:15:10;;;;;;;11.83;9.40;;;;;;;;;;5086715;28;20183;-52
2023/03/06 05:17:36;;;;;;;11.10;9.63;;;;;;;;;;5085733;28;20186;-52
2023/03/06 05:20:05;;;;;;;12.33;9.23;;;;;;;;;;5094713;28;20654;-52
2023/03/06 05:22:31;;;;;;;10.67;9.00;;;;;;;;;;5088795;28;20719;-52
2023/03/06 05:24:57;;;;;;;10.77;8.77;;;;;;;;;;5089055;28;20654;-52
2023/03/06 05:27:23;;;;;;;11.10;10.00;;;;;;;;;;5080090;28;20258;-55
2023/03/06 05:29:49;;;;;;;12.33;9.47;;;;;;;;;;5096845;28;20191;-52
2023/03/06 05:32:15;;;;;;;10.20;8.43;;;;;;;;;;5081877;28;20206;-52
2023/03/06 05:34:41;;;;;;;10.77;8.60;;;;;;;;;;5083878;28;20183;-52
2023/03/06 05:37:08;;;;;;;9.43;7.77;;;;;;;;;;5083724;28;20178;-52
2023/03/06 05:39:34;;;;;;;11.57;9.57;;;;;;;;;;5087020;28;20658;-52
2023/03/06 05:42:00;;;;;;;11.97;9.73;;;;;;;;;;5086130;28;20225;-52
2023/03/06 05:44:31;;;;;;;10.43;8.37;;;;;;;;;;5086513;28;20221;-52
2023/03/06 05:46:57;;;;;;;12.60;9.83;;;;;;;;;;5084630;28;20185;-52
2023/03/06 05:49:23;;;;;;;12.73;9.47;;;;;;;;;;5084173;28;20204;-52
2023/03/06 05:51:49;;;;;;;10.07;8.37;;;;;;;;;;5084581;28;20583;-52
2023/03/06 05:54:15;;;;;;;13.30;10.93;;;;;;;;;;5082973;28;20178;-52
2023/03/06 05:56:41;;;;;;;12.43;8.90;;;;;;;;;;5081536;28;20229;-52
2023/03/06 05:59:07;;;;;;;11.70;9.20;;;;;;;;;;5078282;28;20171;-52
2023/03/06 06:01:33;;;;;;;11.40;8.90;;;;;;;;;;5079484;28;20654;-52
2023/03/06 06:03:59;;;;;;;10.53;9.23;;;;;;;;;;5073739;28;20681;-52
2023/03/06 06:06:25;;;;;;;13.13;9.40;;;;;;;;;;5066331;28;20184;-52
2023/03/06 06:08:51;;;;;;;11.73;8.60;;;;;;;;;;5062438;28;20220;-52
2023/03/06 06:11:17;;;;;;;11.80;9.00;;;;;;;;;;5070242;28;20204;-52
2023/03/06 06:13:43;;;;;;;11.37;8.47;;;;;;;;;;5063752;28;20205;-52
2023/03/06 06:16:11;;;;;;;11.20;8.83;;;;;;;;;;5061066;28;20224;-52
2023/03/06 06:18:37;;;;;;;12.77;9.77;;;;;;;;;;5044514;28;20184;-52
2023/03/06 06:21:04;;;;;;;11.67;7.90;;;;;;;;;;5063078;28;20187;-52
2023/03/06 06:23:30;;;;;;;14.60;10.07;;;;;;;;;;5059317;28;20176;-52
2023/03/06 06:25:58;;;;;;;10.73;9.27;;;;;;;;;;5062039;28;20518;-52
2023/03/06 06:28:24;;;;;;;11.67;8.53;;;;;;;;;;5057008;28;20204;-52
2023/03/06 06:30:50;;;;;;;11.20;9.17;;;;;;;;;;5066191;28;20267;-52
2023/03/06 06:33:16;;;;;;;12.17;9.70;;;;;;;;;;5060194;28;20259;-52
2023/03/06 06:35:42;;;;;;;12.40;10.03;;;;;;;;;;5059838;28;20628;-52
2023/03/06 06:38:09;;;;;;;13.93;9.33;;;;;;;;;;5062446;28;20208;-52
2023/03/06 06:40:37;;;;;;;11.70;9.37;;;;;;;;;;5071893;28;20708;-52
2023/03/06 06:43:03;;;;;;;13.10;9.97;;;;;;;;;;5055793;28;20177;-52
2023/03/06 06:45:29;;;;;;;14.03;10.87;;;;;;;;;;5068865;28;20204;-52
2023/03/06 06:47:56;;;;;;;12.33;9.83;;;;;;;;;;5065939;28;20585;-52
2023/03/06 06:50:22;;;;;;;13.23;10.50;;;;;;;;;;5062551;28;20177;-52
2023/03/06 06:52:48;;;;;;;12.80;9.30;;;;;;;;;;5069834;28;20187;-52
2023/03/06 06:55:14;;;;;;;12.60;9.77;;;;;;;;;;5064888;28;20177;-52
2023/03/06 06:57:41;;;;;;;18.20;10.67;;;;;;;;;;5066032;28;20180;-52
2023/03/06 07:00:07;;;;;;;15.50;11.17;;;;;;;;;;5065669;28;20176;-52
2023/03/06 07:02:33;;;;;;;14.73;10.00;;;;;;;;;;5066684;28;20189;-52
2023/03/06 07:04:59;;;;;;;14.50;10.37;;;;;;;;;;5090603;28;20191;-52
2023/03/06 07:07:25;;;;;;;15.50;11.20;;;;;;;;;;5086040;28;20417;-53
2023/03/06 07:09:51;;;;;;;15.10;10.77;;;;;;;;;;5091275;28;20192;-52
2023/03/06 07:12:17;;;;;;;15.27;11.67;;;;;;;;;;5090881;28;20869;-52
2023/03/06 07:14:43;;;;;;;15.67;11.83;;;;;;;;;;5090724;28;20187;-52
2023/03/06 07:17:09;;;;;;;16.60;11.83;;;;;;;;;;5088946;28;20626;-52
2023/03/06 07:19:35;;;;;;;15.40;11.17;;;;;;;;;;5088659;28;20176;-52
2023/03/06 07:22:02;;;;;;;15.00;10.80;;;;;;;;;;5091244;28;20180;-52
2023/03/06 07:24:28;;;;;;;13.23;10.07;;;;;;;;;;5089373;28;20614;-52
2023/03/06 07:26:54;;;;;;;14.30;10.40;;;;;;;;;;5086890;28;20658;-52
2023/03/06 07:29:20;;;;;;;15.93;10.43;;;;;;;;;;5090079;28;20553;-52
2023/03/06 07:31:46;;;;;;;15.57;10.03;;;;;;;;;;5082883;28;20176;-52
2023/03/06 07:34:13;;;;;;;13.30;10.33;;;;;;;;;;5087660;28;20237;-52
2023/03/06 07:36:39;;;;;;;15.67;10.03;;;;;;;;;;5084175;28;20178;-52
2023/03/06 07:39:08;;;;;;;14.07;10.87;;;;;;;;;;5083057;28;20211;-52
2023/03/06 07:41:34;;;;;;;14.77;10.73;;;;;;;;;;5084080;28;20187;-52
2023/03/06 07:44:00;;;;;;;11.93;9.10;;;;;;;;;;5085213;28;20236;-52
2023/03/06 07:46:27;;;;;;;14.73;10.67;;;;;;;;;;5088146;28;20183;-52
2023/03/06 07:48:53;;;;;;;13.57;10.60;;;;;;;;;;5090021;28;20192;-52
2023/03/06 07:51:20;;;;;;;15.97;9.80;;;;;;;;;;5090823;28;20180;-52
2023/03/06 07:53:47;;;;;;;13.43;10.73;;;;;;;;;;5089929;28;20480;-52
2023/03/06 07:56:13;;;;;;;12.37;9.17;;;;;;;;;;5089701;28;20241;-52
2023/03/06 07:58:41;;;;;;;12.37;9.20;;;;;;;;;;5089258;28;20650;-52
2023/03/06 08:01:09;;;;;;;14.77;10.20;;;;;;;;;;5089284;28;20164;-52
2023/03/06 08:03:36;;;;;;;12.37;9.23;;;;;;;;;;5087208;28;20255;-52
2023/03/06 08:06:06;;;;;;;12.33;9.83;;;;;;;;;;5088563;28;20187;-52
2023/03/06 08:08:33;;;;;;;14.20;9.80;;;;;;;;;;5079538;28;20290;-52
2023/03/06 08:10:59;;;;;;;11.80;8.70;;;;;;;;;;5081770;28;20254;-52
2023/03/06 08:13:25;;;;;;;13.70;9.83;;;;;;;;;;5087103;28;20660;-52
2023/03/06 08:15:51;;;;;;;11.80;9.23;;;;;;;;;;5090780;28;20190;-52
2023/03/06 08:18:17;;;;;;;13.07;9.07;;;;;;;;;;5089404;28;20172;-52
2023/03/06 08:20:43;;;;;;;12.07;8.80;;;;;;;;;;5090768;28;20525;-52
2023/03/06 08:23:10;;;;;;;13.20;8.93;;;;;;;;;;5089467;28;20663;-52
2023/03/06 08:25:36;;;;;;;12.57;9.03;;;;;;;;;;5090369;28;20665;-52
2023/03/06 08:28:03;;;;;;;15.77;10.57;;;;;;;;;;5090179;28;20203;-52
2023/03/06 08:30:29;;;;;;;14.43;10.00;;;;;;;;;;5090340;28;20168;-52
2023/03/06 08:32:55;;;;;;;12.67;10.13;;;;;;;;;;5089290;28;20176;-52
2023/03/06 08:35:21;;;;;;;14.70;9.80;;;;;;;;;;5089207;28;20597;-52
2023/03/06 08:37:47;;;;;;;13.03;9.63;;;;;;;;;;5087116;28;20175;-52
2023/03/06 08:40:14;;;;;;;15.00;10.63;;;;;;;;;;5090902;28;20233;-52
2023/03/06 08:42:40;;;;;;;15.60;11.43;;;;;;;;;;5090563;28;20627;-52
2023/03/06 08:45:06;;;;;;;16.67;11.07;;;;;;;;;;5090354;28;20183;-52
2023/03/06 08:47:35;;;;;;;16.47;11.87;;;;;;;;;;5089422;28;20172;-52
2023/03/06 08:50:01;;;;;;;15.90;11.73;;;;;;;;;;5090231;28;20597;-52
2023/03/06 08:52:27;;;;;;;18.50;12.07;;;;;;;;;;5089613;28;20597;-52
2023/03/06 08:54:53;;;;;;;15.73;11.83;;;;;;;;;;5090341;28;20176;-53
2023/03/06 08:57:19;;;;;;;17.43;13.13;;;;;;;;;;5090217;28;20176;-53
2023/03/06 08:59:45;;;;;;;16.70;12.33;;;;;;;;;;5089926;28;20179;-53
2023/03/06 09:02:14;;;;;;;15.97;11.90;;;;;;;;;;5090443;28;20281;-53
2023/03/06 09:04:40;;;;;;;14.90;11.87;;;;;;;;;;5088310;28;20235;-53
2023/03/06 09:07:06;;;;;;;18.13;13.40;;;;;;;;;;5090001;28;20699;-53
2023/03/06 09:09:32;;;;;;;19.67;13.27;;;;;;;;;;5090043;28;20202;-53
2023/03/06 09:11:58;;;;;;;18.57;12.13;;;;;;;;;;5090561;28;20212;-53
2023/03/06 09:14:24;;;;;;;20.37;13.97;;;;;;;;;;5090097;28;20333;-53
2023/03/06 09:16:50;;;;;;;19.63;14.43;;;;;;;;;;5089357;28;20200;-53
2023/03/06 09:19:16;;;;;;;16.60;12.07;;;;;;;;;;5086621;28;20199;-53
2023/03/06 09:21:42;;;;;;;18.23;12.80;;;;;;;;;;5087502;28;20615;-53
2023/03/06 09:24:09;;;;;;;17.73;13.30;;;;;;;;;;5088164;28;20176;-53
2023/03/06 09:26:35;;;;;;;17.97;12.40;;;;;;;;;;5088103;28;20182;-53
2023/03/06 09:29:01;;;;;;;17.13;12.47;;;;;;;;;;5087771;28;20233;-53
2023/03/06 09:31:29;;;;;;;19.07;11.93;;;;;;;;;;5088902;28;20168;-53
2023/03/06 09:33:55;;;;;;;17.57;12.20;;;;;;;;;;5089040;28;20183;-53
2023/03/06 09:36:21;;;;;;;16.73;11.83;;;;;;;;;;5086604;28;20176;-53
2023/03/06 09:38:48;;;;;;;16.73;12.27;;;;;;;;;;5070206;28;20186;-53
2023/03/06 09:41:25;;;;;;;19.67;12.90;;;;;;;;;;5088771;28;20565;-53
2023/03/06 09:43:53;;;;;;;20.13;12.53;;;;;;;;;;5070788;28;20225;-53
2023/03/06 09:46:33;;;;;;;17.43;13.70;;;;;;;;;;5089747;28;20183;-53
2023/03/06 09:49:18;;;;;;;19.77;14.27;;;;;;;;;;5088440;28;20722;-53
2023/03/06 09:51:51;;;;;;;18.27;13.43;;;;;;;;;;5088795;28;20695;-53
2023/03/06 09:54:20;;;;;;;19.03;14.27;;;;;;;;;;5091411;28;20160;-53
2023/03/06 09:56:48;;;;;;;19.30;14.17;;;;;;;;;;5089681;28;20646;-53
2023/03/06 09:59:14;;;;;;;20.70;13.40;;;;;;;;;;5089102;28;20160;-53
2023/03/06 10:01:45;;;;;;;21.97;13.57;;;;;;;;;;5089315;28;20286;-53
2023/03/06 10:04:17;;;;;;;18.87;13.10;;;;;;;;;;5087917;28;20231;-53
2023/03/06 10:06:48;;;;;;;19.23;14.17;;;;;;;;;;5083465;28;20224;-53
2023/03/06 10:09:21;;;;;;;18.33;13.77;;;;;;;;;;5088524;28;20839;-53
2023/03/06 10:11:59;;;;;;;19.80;14.47;;;;;;;;;;5088945;28;20207;-53
2023/03/06 10:14:31;;;;;;;19.57;12.80;;;;;;;;;;5088938;28;20178;-53
2023/03/06 10:16:58;;;;;;;18.03;13.00;;;;;;;;;;5089694;28;20179;-53
2023/03/06 10:19:31;;;;;;;16.97;13.17;;;;;;;;;;5091580;28;20175;-53
2023/03/06 10:21:57;;;;;;;17.07;12.83;;;;;;;;;;5088908;28;20180;-53
2023/03/06 10:24:45;;;;;;;14.60;11.37;;;;;;;;;;5083435;28;20180;-53
2023/03/06 10:27:17;;;;;;;15.77;11.87;;;;;;;;;;5092539;28;20190;-53
2023/03/06 10:29:46;;;;;;;14.93;11.40;;;;;;;;;;5088528;28;20202;-53
2023/03/06 10:32:20;;;;;;;15.60;11.97;;;;;;;;;;5082301;28;20194;-53
2023/03/06 10:34:46;;;;;;;14.63;10.83;;;;;;;;;;5083950;28;20179;-53
2023/03/06 10:37:17;;;;;;;16.97;11.70;;;;;;;;;;5091368;28;20180;-53
2023/03/06 10:39:43;;;;;;;14.27;10.70;;;;;;;;;;5088679;28;20188;-53
2023/03/06 10:42:10;;;;;;;14.53;11.03;;;;;;;;;;5091080;28;20171;-53
2023/03/06 10:44:36;;;;;;;16.63;11.57;;;;;;;;;;5086769;28;20183;-53
2023/03/06 10:47:21;;;;;;;14.60;10.27;;;;;;;;;;5092168;28;20665;-53
2023/03/06 10:49:57;;;;;;;13.43;9.77;;;;;;;;;;5088790;28;20196;-53
2023/03/06 10:52:23;;;;;;;16.40;10.93;;;;;;;;;;5087469;28;20179;-53
2023/03/06 10:54:49;;;;;;;13.70;10.10;;;;;;;;;;5090897;28;20211;-53
2023/03/06 10:57:31;;;;;;;13.57;10.13;;;;;;;;;;5085247;28;20564;-53
2023/03/06 10:59:58;;;;;;;11.17;9.03;;;;;;;;;;5081858;28;20184;-53
2023/03/06 11:02:37;;;;;;;11.43;8.07;;;;;;;;;;5090867;28;20175;-53
2023/03/06 11:05:05;;;;;;;11.77;9.27;;;;;;;;;;5089130;28;20191;-53
2023/03/06 11:07:32;;;;;;;11.03;8.30;;;;;;;;;;5084655;28;20724;-53
2023/03/06 11:09:58;;;;;;;10.67;8.17;;;;;;;;;;5088359;28;20204;-53
2023/03/06 11:12:29;;;;;;;11.20;7.87;;;;;;;;;;5085939;28;20693;-53
2023/03/06 11:15:04;;;;;;;12.30;8.23;;;;;;;;;;5081459;28;20183;-54
2023/03/06 11:17:31;;;;;;;14.07;9.10;;;;;;;;;;5082749;28;20187;-54
2023/03/06 11:20:15;;;;;;;11.27;8.47;;;;;;;;;;5087907;28;20270;-53
2023/03/06 11:22:43;;;;;;;12.33;8.10;;;;;;;;;;5086646;28;20176;-53
2023/03/06 11:25:12;;;;;;;12.20;8.67;;;;;;;;;;5083198;28;20536;-54
2023/03/06 11:27:41;;;;;;;10.03;7.90;;;;;;;;;;5080827;28;20179;-54
2023/03/06 11:30:28;;;;;;;12.00;8.63;;;;;;;;;;5083944;28;20199;-53
2023/03/06 11:32:56;;;;;;;10.23;7.80;;;;;;;;;;5059306;28;20715;-53
2023/03/06 11:35:34;;;;;;;9.83;7.30;;;;;;;;;;5087327;28;20191;-53
2023/03/06 11:38:23;;;;;;;11.67;7.70;;;;;;;;;;5088817;28;20213;-54
2023/03/06 11:40:52;;;;;;;9.43;7.13;;;;;;;;;;5052710;28;20294;-53
2023/03/06 11:43:25;;;;;;;10.83;7.97;;;;;;;;;;5088959;28;20182;-53
2023/03/06 11:45:56;;;;;;;10.07;7.30;;;;;;;;;;5090625;28;20180;-54
2023/03/06 11:48:34;;;;;;;9.70;6.93;;;;;;;;;;5080448;28;20228;-53
2023/03/06 11:51:11;;;;;;;12.87;8.20;;;;;;;;;;5077700;28;20522;-53
2023/03/06 11:53:38;;;;;;;8.77;6.90;;;;;;;;;;5087237;28;21306;-54
2023/03/06 11:56:06;;;;;;;9.93;7.53;;;;;;;;;;5086685;28;20186;-53
2023/03/06 11:58:50;;;;;;;10.27;7.70;;;;;;;;;;5088975;28;20175;-53
2023/03/06 12:01:23;;;;;;;11.20;8.50;;;;;;;;;;5083361;28;20183;-53
2023/03/06 12:03:58;;;;;;;10.57;7.77;;;;;;;;;;5086382;28;20288;-53
2023/03/06 12:06:24;;;;;;;9.67;8.00;;;;;;;;;;5088373;28;20190;-53
2023/03/06 12:09:12;;;;;;;9.87;7.87;;;;;;;;;;5079826;28;20200;-52
2023/03/06 12:11:48;;;;;;;9.33;7.93;;;;;;;;;;5076108;28;20211;-53
2023/03/06 12:14:21;;;;;;;9.67;7.77;;;;;;;;;;5080673;28;20274;-53
2023/03/06 12:16:57;;;;;;;10.13;7.63;;;;;;;;;;5078875;28;20253;-53
2023/03/06 12:19:36;;;;;;;9.87;7.37;;;;;;;;;;5082324;28;20202;-53
2023/03/06 12:22:09;;;;;;;8.47;6.67;;;;;;;;;;5092487;28;20278;-53
2023/03/06 12:24:54;;;;;;;10.23;7.40;;;;;;;;;;5083598;28;20184;-53
2023/03/06 12:27:38;;;;;;;8.83;5.97;;;;;;;;;;5088309;28;20198;-53
2023/03/06 12:30:24;;;;;;;9.07;6.73;;;;;;;;;;5088151;28;20654;-53
2023/03/06 12:33:08;;;;;;;7.80;6.07;;;;;;;;;;5083122;28;20226;-53
2023/03/06 12:35:44;;;;;;;6.70;5.40;;;;;;;;;;5089698;28;20574;-54
2023/03/06 12:38:10;;;;;;;7.27;6.20;;;;;;;;;;5086196;28;20175;-53
2023/03/06 12:40:45;;;;;;;7.00;5.27;;;;;;;;;;5088612;28;20171;-54
2023/03/06 12:43:31;;;;;;;6.30;4.93;;;;;;;;;;5084650;28;20228;-55
2023/03/06 12:45:59;;;;;;;9.23;5.13;;;;;;;;;;5047216;28;20194;-54
2023/03/06 12:48:27;;;;;;;5.50;4.90;;;;;;;;;;5085840;28;20551;-54
2023/03/06 12:50:53;;;;;;;7.97;5.00;;;;;;;;;;5089476;28;20184;-54
2023/03/06 12:53:26;;;;;;;6.23;5.20;;;;;;;;;;5081007;28;20179;-54
2023/03/06 12:55:53;;;;;;;5.47;4.80;;;;;;;;;;5087388;28;20228;-54
2023/03/06 12:58:31;;;;;;;5.70;4.80;;;;;;;;;;5085693;28;20271;-53
2023/03/06 13:01:14;;;;;;;5.97;5.23;;;;;;;;;;5083496;28;20186;-53
2023/03/06 13:04:04;;;;;;;6.30;4.33;;;;;;;;;;5089979;28;20230;-54
2023/03/06 13:06:48;;;;;;;6.73;4.50;;;;;;;;;;5083497;28;20647;-53
2023/03/06 13:09:18;;;;;;;5.97;4.37;;;;;;;;;;5084970;28;20206;-54
2023/03/06 13:11:44;;;;;;;4.20;3.80;;;;;;;;;;5092441;28;20560;-54
2023/03/06 13:14:34;;;;;;;4.37;3.60;;;;;;;;;;5086983;28;20531;-54
2023/03/06 13:17:19;;;;;;;4.50;4.10;;;;;;;;;;5090540;28;20203;-54
2023/03/06 13:19:45;;;;;;;5.70;4.10;;;;;;;;;;5079345;28;20180;-54
2023/03/06 13:22:15;;;;;;;6.23;4.83;;;;;;;;;;5086805;28;20175;-54
2023/03/06 13:24:42;;;;;;;5.70;4.27;;;;;;;;;;5086097;28;20542;-54
2023/03/06 13:27:11;;;;;;;4.37;3.87;;;;;;;;;;5086081;28;20179;-54
2023/03/06 13:29:37;;;;;;;5.43;4.27;;;;;;;;;;5096012;28;20198;-54
2023/03/06 13:32:03;;;;;;;5.67;4.40;;;;;;;;;;5096645;28;20176;-54
2023/03/06 13:34:32;;;;;;;3.80;3.40;;;;;;;;;;5091345;28;20172;-54
2023/03/06 13:37:13;;;;;;;4.57;3.73;;;;;;;;;;5094306;28;20173;-54
2023/03/06 13:39:54;;;;;;;4.10;3.70;;;;;;;;;;5094039;28;20611;-54
2023/03/06 13:42:31;;;;;;;4.20;3.43;;;;;;;;;;5089362;28;20278;-54
2023/03/06 13:45:05;;;;;;;4.43;3.70;;;;;;;;;;5091139;28;20546;-54
2023/03/06 13:47:49;;;;;;;5.13;4.03;;;;;;;;;;5090221;28;20280;-54
2023/03/06 13:50:36;;;;;;;5.37;4.40;;;;;;;;;;5092507;28;20261;-54
2023/03/06 13:53:02;;;;;;;4.73;3.70;;;;;;;;;;5097135;28;20246;-54
2023/03/06 13:55:50;;;;;;;5.03;4.17;;;;;;;;;;5094296;28;20175;-54
2023/03/06 13:58:33;;;;;;;6.30;4.30;;;;;;;;;;5092144;28;20192;-55
2023/03/06 14:01:22;;;;;;;6.63;5.17;;;;;;;;;;5093491;28;20698;-54
2023/03/06 14:04:14;;;;;;;5.67;4.50;;;;;;;;;;5090004;28;20306;-54
2023/03/06 14:06:41;;;;;;;6.57;5.20;;;;;;;;;;5083390;28;20199;-53
2023/03/06 14:09:13;;;;;;;5.67;5.03;;;;;;;;;;5092113;28;20192;-54
2023/03/06 14:11:39;;;;;;;5.47;4.40;;;;;;;;;;5072123;28;20697;-54
2023/03/06 14:14:05;;;;;;;5.43;4.83;;;;;;;;;;5088038;28;20195;-54
2023/03/06 14:16:37;;;;;;;6.33;4.97;;;;;;;;;;5084414;28;20173;-54
2023/03/06 14:19:03;;;;;;;5.43;4.93;;;;;;;;;;5081718;28;20691;-54
2023/03/06 14:21:38;;;;;;;6.20;5.60;;;;;;;;;;5086275;28;20276;-54
2023/03/06 14:24:05;;;;;;;7.27;5.67;;;;;;;;;;5088487;28;20183;-54
2023/03/06 14:26:32;;;;;;;7.00;5.73;;;;;;;;;;5085563;28;20187;-54
2023/03/06 14:28:59;;;;;;;10.70;6.80;;;;;;;;;;5088484;28;20215;-54
2023/03/06 14:31:27;;;;;;;8.50;6.63;;;;;;;;;;5086555;28;20183;-54
2023/03/06 14:33:55;;;;;;;6.60;5.63;;;;;;;;;;5082833;28;20192;-54
2023/03/06 14:36:22;;;;;;;8.10;6.30;;;;;;;;;;5084235;28;20184;-54
2023/03/06 14:38:57;;;;;;;8.27;7.00;;;;;;;;;;5075180;28;20168;-54